Time;durP1;ratioP1;P1;durP2;ratioP2;P2;SDS_P1;SDS_P2;PMS_P1;PMS_P2;Temp;Humidity;BMP_temperature;BMP_pressure;BME280_temperature;BME280_humidity;BME280_pressure;Samples;Min_cycle;Max_cycle;Signal;HPM_P1;HPM_P2
2022/02/11 00:07:56;;;;;;;71.07;40.95;;;;;;;;;;5018342;28;20048;-82
2022/02/11 00:10:22;;;;;;;67.60;40.25;;;;;;;;;;5018030;28;20355;-83
2022/02/11 00:12:48;;;;;;;66.45;40.05;;;;;;;;;;5017809;28;20392;-81
2022/02/11 00:17:59;;;;;;;63.20;38.83;;;;;;;;;;5018266;28;20110;-83
2022/02/11 00:20:25;;;;;;;65.20;38.83;;;;;;;;;;5017820;28;20049;-83
2022/02/11 00:22:52;;;;;;;67.55;40.60;;;;;;;;;;5033099;28;20137;-83
2022/02/11 00:25:19;;;;;;;63.00;39.53;;;;;;;;;;5018085;28;20068;-83
2022/02/11 00:33:25;;;;;;;64.78;39.30;;;;;;;;;;5017822;28;20060;-84
2022/02/11 00:36:11;;;;;;;63.78;37.88;;;;;;;;;;5033134;28;20018;-83
2022/02/11 01:03:34;;;;;;;63.65;35.97;;;;;;;;;;5017990;28;20324;-84
2022/02/11 01:06:00;;;;;;;57.53;33.28;;;;;;;;;;5017772;28;20030;-85
2022/02/11 01:08:26;;;;;;;57.28;33.58;;;;;;;;;;5033049;28;20033;-84
2022/02/11 01:10:52;;;;;;;57.83;33.35;;;;;;;;;;5032476;28;20030;-85
2022/02/11 01:13:18;;;;;;;54.05;32.47;;;;;;;;;;5032772;28;20157;-83
2022/02/11 01:15:52;;;;;;;55.53;32.90;;;;;;;;;;5017637;28;20428;-85
2022/02/11 01:18:18;;;;;;;60.25;34.25;;;;;;;;;;5017608;28;20037;-85
2022/02/11 01:20:58;;;;;;;53.97;33.92;;;;;;;;;;5017445;28;20032;-84
2022/02/11 01:42:37;;;;;;;59.45;36.22;;;;;;;;;;5021169;28;20029;-85
2022/02/11 01:55:04;;;;;;;56.38;33.13;;;;;;;;;;5020660;28;20530;-84
2022/02/11 02:16:40;;;;;;;56.70;31.75;;;;;;;;;;5020379;28;20034;-84
2022/02/11 02:56:44;;;;;;;40.90;25.52;;;;;;;;;;5019507;28;20486;-84
2022/02/11 03:00:06;;;;;;;43.83;25.65;;;;;;;;;;5005793;28;20033;-84
2022/02/11 03:14:36;;;;;;;41.45;26.08;;;;;;;;;;5017457;28;20033;-84
2022/02/11 03:51:16;;;;;;;40.88;24.35;;;;;;;;;;5018624;28;20080;-84
2022/02/11 03:54:11;;;;;;;38.47;22.90;;;;;;;;;;5018400;28;20379;-84
2022/02/11 04:55:54;;;;;;;40.00;21.92;;;;;;;;;;4977017;28;20051;-84
2022/02/11 05:01:05;;;;;;;37.25;20.67;;;;;;;;;;4981538;28;20114;-84
2022/02/11 05:03:31;;;;;;;36.13;20.70;;;;;;;;;;4980911;28;20042;-85
2022/02/11 05:05:57;;;;;;;33.10;20.17;;;;;;;;;;4980952;28;20027;-85
2022/02/11 05:08:24;;;;;;;31.88;19.80;;;;;;;;;;4980706;28;20053;-85
2022/02/11 05:10:52;;;;;;;31.50;19.27;;;;;;;;;;4964510;28;20042;-85
2022/02/11 05:13:18;;;;;;;32.42;19.27;;;;;;;;;;4980398;28;20058;-85
2022/02/11 05:15:45;;;;;;;33.30;20.02;;;;;;;;;;4984462;28;20097;-85
2022/02/11 05:18:11;;;;;;;40.03;22.85;;;;;;;;;;5021312;28;20033;-84
2022/02/11 05:20:37;;;;;;;46.15;27.65;;;;;;;;;;5021415;28;20022;-83
2022/02/11 05:23:06;;;;;;;37.58;22.25;;;;;;;;;;5021296;28;20050;-85
2022/02/11 05:25:37;;;;;;;37.55;22.42;;;;;;;;;;5021098;28;20032;-84
2022/02/11 05:28:04;;;;;;;83.13;39.85;;;;;;;;;;5021010;28;20037;-84
2022/02/11 05:30:30;;;;;;;60.13;30.75;;;;;;;;;;5021007;28;20103;-84
2022/02/11 05:32:56;;;;;;;40.38;23.60;;;;;;;;;;5036213;28;20438;-83
2022/02/11 05:35:23;;;;;;;38.25;23.13;;;;;;;;;;5036109;28;20130;-85
2022/02/11 05:37:49;;;;;;;32.78;21.73;;;;;;;;;;5021128;28;20355;-84
2022/02/11 05:40:15;;;;;;;36.15;20.30;;;;;;;;;;5021246;28;20034;-84
2022/02/11 05:42:41;;;;;;;30.55;19.50;;;;;;;;;;5036003;28;20324;-85
2022/02/11 05:45:08;;;;;;;39.53;22.00;;;;;;;;;;5036569;28;20069;-86
2022/02/11 05:47:34;;;;;;;37.22;22.35;;;;;;;;;;5036167;28;20080;-86
2022/02/11 05:50:03;;;;;;;37.65;22.42;;;;;;;;;;5020740;28;20340;-87
2022/02/11 05:52:29;;;;;;;36.78;22.63;;;;;;;;;;5020567;28;20053;-87
2022/02/11 05:54:55;;;;;;;39.05;23.70;;;;;;;;;;5020638;28;20402;-85
2022/02/11 05:57:21;;;;;;;39.33;24.52;;;;;;;;;;5020665;28;20101;-85
2022/02/11 05:59:49;;;;;;;44.58;25.80;;;;;;;;;;5020732;28;20033;-85
2022/02/11 06:02:15;;;;;;;43.75;27.33;;;;;;;;;;5020628;28;20041;-85
2022/02/11 06:04:41;;;;;;;47.85;29.92;;;;;;;;;;5036072;28;20025;-84
2022/02/11 06:07:07;;;;;;;50.30;31.02;;;;;;;;;;5020498;28;20026;-85
2022/02/11 06:09:33;;;;;;;51.60;32.83;;;;;;;;;;5020108;28;20034;-86
2022/02/11 06:11:59;;;;;;;79.72;43.58;;;;;;;;;;5020493;28;20029;-86
2022/02/11 06:14:26;;;;;;;99.15;51.05;;;;;;;;;;5020234;28;20038;-86
2022/02/11 06:16:52;;;;;;;105.53;50.15;;;;;;;;;;5035671;28;20428;-86
2022/02/11 06:19:18;;;;;;;79.53;42.95;;;;;;;;;;5020207;28;20404;-85
2022/02/11 06:21:44;;;;;;;78.57;40.88;;;;;;;;;;5020263;28;20022;-87
2022/02/11 06:24:10;;;;;;;68.53;39.17;;;;;;;;;;5022117;28;20034;-84
2022/02/11 06:26:36;;;;;;;76.32;43.97;;;;;;;;;;5011269;28;20018;-85
2022/02/11 06:29:03;;;;;;;103.55;56.50;;;;;;;;;;5021530;28;20034;-85
2022/02/11 06:31:29;;;;;;;135.68;65.07;;;;;;;;;;5022263;28;20071;-85
2022/02/11 06:33:55;;;;;;;143.27;63.63;;;;;;;;;;5039740;28;20048;-85
2022/02/11 06:36:21;;;;;;;221.35;92.78;;;;;;;;;;5039676;28;20037;-85
2022/02/11 06:38:47;;;;;;;205.45;86.63;;;;;;;;;;5039473;28;20021;-84
2022/02/11 06:41:14;;;;;;;194.15;85.10;;;;;;;;;;5039729;28;20036;-85
2022/02/11 06:43:40;;;;;;;154.50;74.72;;;;;;;;;;5021387;28;20095;-85
2022/02/11 06:46:06;;;;;;;151.60;75.93;;;;;;;;;;5022184;28;20025;-85
2022/02/11 06:48:32;;;;;;;113.07;58.55;;;;;;;;;;5039403;28;20017;-85
2022/02/11 06:50:58;;;;;;;107.57;52.55;;;;;;;;;;5021833;28;20036;-85
2022/02/11 06:53:24;;;;;;;97.30;51.53;;;;;;;;;;5039577;28;20021;-84
2022/02/11 06:55:50;;;;;;;112.32;56.38;;;;;;;;;;5039466;28;20032;-83
2022/02/11 06:58:17;;;;;;;112.70;57.70;;;;;;;;;;5039296;28;20281;-84
2022/02/11 07:00:47;;;;;;;82.32;48.80;;;;;;;;;;5039173;28;20442;-84
2022/02/11 07:03:13;;;;;;;79.57;44.42;;;;;;;;;;5021027;28;20070;-83
2022/02/11 07:05:40;;;;;;;68.05;41.20;;;;;;;;;;5038998;28;20033;-85
2022/02/11 07:08:06;;;;;;;60.65;37.60;;;;;;;;;;5038972;28;20311;-84
2022/02/11 07:10:33;;;;;;;57.05;36.28;;;;;;;;;;5039246;28;20047;-84
2022/02/11 07:13:00;;;;;;;61.90;34.90;;;;;;;;;;5021400;28;20031;-84
2022/02/11 07:15:26;;;;;;;49.47;30.10;;;;;;;;;;5021499;28;20060;-85
2022/02/11 07:17:52;;;;;;;61.63;35.17;;;;;;;;;;5020730;28;20030;-84
2022/02/11 07:20:18;;;;;;;74.43;38.00;;;;;;;;;;5037650;28;20022;-84
2022/02/11 07:22:44;;;;;;;105.03;45.10;;;;;;;;;;5013377;28;20021;-83
2022/02/11 07:25:14;;;;;;;103.72;43.25;;;;;;;;;;5020384;28;20051;-84
2022/02/11 07:27:41;;;;;;;93.88;43.10;;;;;;;;;;5019211;28;20079;-84
2022/02/11 07:30:08;;;;;;;83.55;38.10;;;;;;;;;;5019176;28;20018;-83
2022/02/11 07:32:34;;;;;;;60.85;32.88;;;;;;;;;;5019826;28;20376;-83
2022/02/11 07:35:02;;;;;;;54.78;32.95;;;;;;;;;;5029549;28;20049;-84
2022/02/11 07:37:30;;;;;;;58.50;32.00;;;;;;;;;;5022867;28;20383;-84
2022/02/11 07:39:57;;;;;;;53.15;29.08;;;;;;;;;;5035914;28;20032;-84
2022/02/11 07:42:24;;;;;;;58.75;31.75;;;;;;;;;;5021729;28;20229;-84
2022/02/11 07:44:50;;;;;;;47.35;27.58;;;;;;;;;;5001349;28;20340;-84
2022/02/11 07:47:16;;;;;;;46.28;28.13;;;;;;;;;;5037255;28;20041;-84
2022/02/11 07:49:42;;;;;;;51.17;30.60;;;;;;;;;;5037360;28;20108;-84
2022/02/11 07:52:08;;;;;;;61.08;31.95;;;;;;;;;;5025168;28;20169;-84
2022/02/11 07:54:35;;;;;;;55.40;30.00;;;;;;;;;;5018373;28;20025;-84
2022/02/11 07:57:01;;;;;;;44.10;23.25;;;;;;;;;;5018419;28;20059;-83
2022/02/11 07:59:27;;;;;;;40.45;22.85;;;;;;;;;;5036487;28;20104;-83
2022/02/11 08:01:53;;;;;;;51.88;25.98;;;;;;;;;;5036008;28;20056;-83
2022/02/11 08:04:19;;;;;;;62.53;30.35;;;;;;;;;;5037561;28;20072;-83
2022/02/11 08:06:47;;;;;;;55.72;27.08;;;;;;;;;;5020443;28;20040;-83
2022/02/11 08:09:13;;;;;;;50.72;25.85;;;;;;;;;;5018660;28;20021;-82
2022/02/11 08:11:39;;;;;;;39.50;21.88;;;;;;;;;;5037130;28;20030;-83
2022/02/11 08:14:05;;;;;;;48.55;24.70;;;;;;;;;;5021499;28;20049;-83
2022/02/11 08:16:31;;;;;;;44.83;22.60;;;;;;;;;;5002298;28;20041;-82
2022/02/11 08:18:58;;;;;;;44.15;22.88;;;;;;;;;;5028649;28;20026;-83
2022/02/11 08:21:24;;;;;;;45.25;23.35;;;;;;;;;;5032725;28;20052;-82
2022/02/11 08:23:51;;;;;;;40.22;21.63;;;;;;;;;;5025094;28;20029;-81
2022/02/11 08:26:17;;;;;;;34.55;20.05;;;;;;;;;;5037221;28;20029;-84
2022/02/11 08:28:43;;;;;;;37.53;21.52;;;;;;;;;;5037799;28;20320;-83
2022/02/11 08:31:09;;;;;;;38.78;20.83;;;;;;;;;;5023224;28;20431;-82
2022/02/11 08:33:35;;;;;;;32.33;19.23;;;;;;;;;;5037132;28;20026;-82
2022/02/11 08:36:01;;;;;;;43.58;19.98;;;;;;;;;;5037445;28;20060;-82
2022/02/11 08:38:27;;;;;;;42.20;18.33;;;;;;;;;;5024955;28;20315;-82
2022/02/11 08:40:54;;;;;;;26.52;15.55;;;;;;;;;;5017729;28;20030;-81
2022/02/11 08:43:21;;;;;;;34.22;16.27;;;;;;;;;;5017579;28;20045;-81
2022/02/11 08:45:48;;;;;;;29.15;15.10;;;;;;;;;;5017678;28;20108;-82
2022/02/11 08:48:14;;;;;;;25.85;13.95;;;;;;;;;;5035598;28;20108;-82
2022/02/11 08:50:41;;;;;;;28.67;14.30;;;;;;;;;;5019218;28;20418;-81
2022/02/11 08:53:08;;;;;;;32.85;17.05;;;;;;;;;;5037180;28;20032;-81
2022/02/11 08:55:34;;;;;;;31.85;15.60;;;;;;;;;;5037294;28;20469;-82
2022/02/11 08:58:01;;;;;;;69.05;27.50;;;;;;;;;;5037876;28;20029;-87
2022/02/11 09:00:30;;;;;;;27.33;14.60;;;;;;;;;;5037463;28;20017;-86
2022/02/11 09:02:56;;;;;;;25.02;13.52;;;;;;;;;;5037318;28;20316;-87
2022/02/11 09:05:27;;;;;;;27.95;12.75;;;;;;;;;;5036968;28;20408;-87
2022/02/11 09:07:57;;;;;;;32.60;15.32;;;;;;;;;;5019567;28;20029;-86
2022/02/11 09:10:26;;;;;;;28.70;14.50;;;;;;;;;;5019947;28;20113;-86
2022/02/11 09:12:52;;;;;;;27.50;14.60;;;;;;;;;;5019792;28;20481;-85
2022/02/11 09:15:19;;;;;;;25.50;13.50;;;;;;;;;;5037031;28;20053;-85
2022/02/11 09:17:46;;;;;;;21.88;11.32;;;;;;;;;;5036984;28;20045;-85
2022/02/11 09:20:12;;;;;;;26.60;12.13;;;;;;;;;;5037796;28;20026;-84
2022/02/11 09:22:39;;;;;;;21.20;10.88;;;;;;;;;;5037175;28;20034;-85
2022/02/11 09:25:05;;;;;;;32.78;16.65;;;;;;;;;;5037324;28;20081;-86
2022/02/11 09:27:31;;;;;;;23.70;9.68;;;;;;;;;;5036821;28;20021;-88
2022/02/11 09:29:57;;;;;;;22.05;10.65;;;;;;;;;;5037105;28;20127;-89
2022/02/11 09:32:24;;;;;;;18.98;9.63;;;;;;;;;;5019776;28;20112;-89
2022/02/11 09:34:50;;;;;;;22.73;10.68;;;;;;;;;;5020065;28;20021;-89
2022/02/11 09:37:17;;;;;;;28.83;13.07;;;;;;;;;;5037467;28;20048;-90
2022/02/11 09:39:43;;;;;;;24.90;11.63;;;;;;;;;;5019651;28;20045;-89
2022/02/11 09:42:10;;;;;;;19.60;9.93;;;;;;;;;;5037332;28;20378;-89
2022/02/11 09:44:36;;;;;;;31.40;13.15;;;;;;;;;;5038550;28;20032;-88
2022/02/11 09:47:02;;;;;;;34.25;12.43;;;;;;;;;;5040629;28;20103;-87
2022/02/11 09:49:29;;;;;;;23.05;10.43;;;;;;;;;;5023275;28;20034;-90
2022/02/11 09:51:57;;;;;;;27.60;10.65;;;;;;;;;;5040849;28;20029;-86
2022/02/11 09:54:24;;;;;;;17.00;8.30;;;;;;;;;;5040745;28;20029;-84
2022/02/11 09:56:50;;;;;;;21.20;9.82;;;;;;;;;;5022897;28;20301;-84
2022/02/11 09:59:17;;;;;;;35.42;14.40;;;;;;;;;;5040470;28;20021;-87
2022/02/11 10:01:43;;;;;;;51.85;20.58;;;;;;;;;;5022964;28;20026;-86
2022/02/11 10:04:17;;;;;;;33.92;15.68;;;;;;;;;;5040330;28;20025;-86
2022/02/11 10:06:48;;;;;;;29.70;14.73;;;;;;;;;;5040088;28;20053;-90
2022/02/11 10:09:15;;;;;;;21.37;9.83;;;;;;;;;;5040295;28;20056;-89
2022/02/11 10:11:45;;;;;;;14.25;7.72;;;;;;;;;;5040398;28;20025;-88
2022/02/11 10:14:35;;;;;;;22.55;11.52;;;;;;;;;;5040398;28;20050;-90
2022/02/11 10:17:09;;;;;;;24.70;12.50;;;;;;;;;;5040013;28;20030;-90
2022/02/11 10:19:38;;;;;;;23.60;9.48;;;;;;;;;;5022511;28;20297;-84
2022/02/11 10:22:10;;;;;;;23.58;7.80;;;;;;;;;;5039973;28;20036;-88
2022/02/11 10:24:36;;;;;;;16.45;7.63;;;;;;;;;;5040000;28;20113;-84
2022/02/11 10:27:35;;;;;;;20.13;7.75;;;;;;;;;;5039806;28;20036;-83
2022/02/11 10:30:04;;;;;;;15.70;7.68;;;;;;;;;;4960242;29;20046;-91
2022/02/11 10:32:44;;;;;;;28.33;14.48;;;;;;;;;;4959987;29;20062;-92
2022/02/11 10:35:13;;;;;;;18.30;7.55;;;;;;;;;;4960214;29;20023;-88
2022/02/11 10:38:03;;;;;;;19.60;6.22;;;;;;;;;;4960214;29;20370;-88
2022/02/11 10:40:30;;;;;;;18.00;6.93;;;;;;;;;;4940976;29;20036;-82
2022/02/11 10:42:56;;;;;;;16.38;6.13;;;;;;;;;;4940361;29;20039;-83
2022/02/11 10:45:31;;;;;;;21.85;7.07;;;;;;;;;;4940303;29;20339;-83
2022/02/11 10:48:10;;;;;;;17.13;6.97;;;;;;;;;;4940458;29;20103;-83
2022/02/11 10:50:36;;;;;;;19.55;6.78;;;;;;;;;;4940126;29;20035;-83
2022/02/11 10:53:02;;;;;;;24.60;9.10;;;;;;;;;;4940172;29;20079;-83
2022/02/11 10:55:29;;;;;;;19.85;6.88;;;;;;;;;;4940322;29;20023;-83
2022/02/11 10:57:59;;;;;;;27.88;14.48;;;;;;;;;;4940154;29;20090;-83
2022/02/11 11:00:26;;;;;;;65.30;39.65;;;;;;;;;;4924430;29;20045;-84
2022/02/11 11:02:53;;;;;;;87.72;48.00;;;;;;;;;;4924159;29;20423;-84
2022/02/11 11:05:19;;;;;;;15.45;7.13;;;;;;;;;;4963140;28;20038;-83
2022/02/11 11:07:45;;;;;;;80.95;26.85;;;;;;;;;;4997794;28;20153;-83
2022/02/11 11:10:12;;;;;;;80.65;26.92;;;;;;;;;;4997767;28;20173;-83
2022/02/11 11:12:42;;;;;;;60.88;20.65;;;;;;;;;;4997808;28;20038;-83
2022/02/11 11:15:09;;;;;;;25.45;9.45;;;;;;;;;;4997892;28;20057;-84
2022/02/11 11:17:38;;;;;;;161.05;56.45;;;;;;;;;;5020972;28;20109;-83
2022/02/11 11:20:04;;;;;;;19.85;6.43;;;;;;;;;;5038874;28;20025;-84
2022/02/11 11:22:52;;;;;;;25.00;9.35;;;;;;;;;;5039009;28;20029;-83
2022/02/11 11:25:19;;;;;;;89.20;31.80;;;;;;;;;;5038829;28;20036;-84
2022/02/11 11:27:52;;;;;;;36.92;13.63;;;;;;;;;;5038694;28;20101;-84
2022/02/11 11:30:23;;;;;;;125.90;48.15;;;;;;;;;;5038485;28;20071;-84
2022/02/11 11:33:05;;;;;;;569.20;266.40;;;;;;;;;;5038551;28;20071;-84
2022/02/11 11:35:34;;;;;;;206.13;88.57;;;;;;;;;;5038832;28;20075;-83
2022/02/11 11:38:11;;;;;;;218.25;95.45;;;;;;;;;;5038419;28;20124;-84
2022/02/11 11:40:37;;;;;;;37.90;15.93;;;;;;;;;;5038567;28;20032;-83
2022/02/11 11:43:16;;;;;;;182.82;80.78;;;;;;;;;;5038164;28;20029;-83
2022/02/11 11:45:43;;;;;;;392.83;154.15;;;;;;;;;;5038600;28;20038;-84
2022/02/11 11:48:16;;;;;;;1657.35;728.53;;;;;;;;;;5038391;28;20030;-83
2022/02/11 11:50:42;;;;;;;303.00;118.85;;;;;;;;;;5037885;28;20060;-84
2022/02/11 11:53:25;;;;;;;24.95;9.85;;;;;;;;;;5038163;28;20021;-84
2022/02/11 11:55:51;;;;;;;11.90;4.63;;;;;;;;;;5037354;28;20029;-83
2022/02/11 11:58:31;;;;;;;10.05;5.00;;;;;;;;;;5019697;28;20030;-83
2022/02/11 12:01:01;;;;;;;47.65;16.85;;;;;;;;;;5021989;28;20084;-84
2022/02/11 12:03:27;;;;;;;122.03;44.30;;;;;;;;;;5020080;28;20042;-83
2022/02/11 12:05:58;;;;;;;104.45;36.28;;;;;;;;;;5035272;28;20464;-83
2022/02/11 12:08:28;;;;;;;31.02;11.40;;;;;;;;;;5022226;28;20038;-83
2022/02/11 12:10:56;;;;;;;22.30;8.77;;;;;;;;;;5000714;28;20068;-83
2022/02/11 12:13:22;;;;;;;17.25;7.00;;;;;;;;;;5012436;28;20112;-83
2022/02/11 12:15:49;;;;;;;9.13;3.80;;;;;;;;;;5008450;28;20056;-83
2022/02/11 12:18:15;;;;;;;622.53;260.42;;;;;;;;;;5025242;28;20022;-83
2022/02/11 12:20:44;;;;;;;30.67;11.98;;;;;;;;;;5022714;28;20026;-83
2022/02/11 12:28:41;;;;;;;16.83;6.72;;;;;;;;;;5024784;28;20076;-83
2022/02/11 12:31:08;;;;;;;17.33;6.18;;;;;;;;;;5028814;28;20068;-83
2022/02/11 12:33:37;;;;;;;18.23;6.40;;;;;;;;;;5027174;28;20022;-83
2022/02/11 12:36:10;;;;;;;17.33;6.25;;;;;;;;;;5032528;28;20025;-84
2022/02/11 12:38:37;;;;;;;96.80;34.13;;;;;;;;;;5018146;28;20045;-84
2022/02/11 12:41:03;;;;;;;105.75;35.83;;;;;;;;;;5027323;28;20056;-83
2022/02/11 12:43:29;;;;;;;45.05;18.83;;;;;;;;;;5030410;28;20029;-83
2022/02/11 12:45:56;;;;;;;12.35;5.70;;;;;;;;;;5022731;28;20029;-83
2022/02/11 12:48:40;;;;;;;14.07;5.25;;;;;;;;;;5037311;28;20109;-83
2022/02/11 12:51:10;;;;;;;19.83;8.38;;;;;;;;;;5025054;28;20065;-83
2022/02/11 12:53:36;;;;;;;63.10;28.40;;;;;;;;;;5025534;28;20404;-82
2022/02/11 12:56:05;;;;;;;24.33;11.57;;;;;;;;;;5036854;28;20100;-83
2022/02/11 12:58:33;;;;;;;42.50;15.23;;;;;;;;;;5017350;28;20037;-83
2022/02/11 13:00:59;;;;;;;46.80;18.63;;;;;;;;;;5017526;28;20037;-83
2022/02/11 13:03:48;;;;;;;21.85;7.30;;;;;;;;;;5017911;28;20409;-84
2022/02/11 13:06:20;;;;;;;23.92;10.80;;;;;;;;;;5000212;28;20100;-84
2022/02/11 13:08:46;;;;;;;;;;;;;;;;;;5000428;28;20042;-84
2022/02/11 13:11:17;;;;;;;14.95;6.07;;;;;;;;;;5017329;28;19909;-84
2022/02/11 13:13:44;;;;;;;96.30;28.58;;;;;;;;;;5017502;28;20058;-83
2022/02/11 13:16:10;;;;;;;14.52;5.45;;;;;;;;;;5004041;28;20064;-84
2022/02/11 13:18:38;;;;;;;12.73;5.65;;;;;;;;;;5023908;28;20403;-84
2022/02/11 13:21:06;;;;;;;136.27;45.33;;;;;;;;;;5021368;28;20026;-84
2022/02/11 13:23:32;;;;;;;159.52;53.10;;;;;;;;;;5021422;28;20072;-84
2022/02/11 13:25:59;;;;;;;26.65;9.68;;;;;;;;;;5021397;28;20097;-84
2022/02/11 13:28:27;;;;;;;55.63;20.70;;;;;;;;;;5021225;28;20030;-84
2022/02/11 13:31:00;;;;;;;44.30;14.75;;;;;;;;;;5036330;28;20104;-84
2022/02/11 13:33:30;;;;;;;18.02;5.88;;;;;;;;;;5021264;28;20064;-84
2022/02/11 13:35:58;;;;;;;39.50;14.05;;;;;;;;;;5003594;28;20087;-84
2022/02/11 13:38:34;;;;;;;15.18;5.82;;;;;;;;;;5020957;28;20029;-84
2022/02/11 13:41:01;;;;;;;21.35;7.07;;;;;;;;;;5021275;28;20029;-84
2022/02/11 13:43:28;;;;;;;34.22;13.13;;;;;;;;;;5020957;28;20030;-84
2022/02/11 13:46:01;;;;;;;27.80;12.32;;;;;;;;;;5021115;28;20080;-84
2022/02/11 13:48:29;;;;;;;19.73;8.30;;;;;;;;;;5020927;28;20026;-84
2022/02/11 13:51:06;;;;;;;16.10;6.22;;;;;;;;;;5020662;28;20049;-85
2022/02/11 13:53:39;;;;;;;82.97;34.38;;;;;;;;;;5003220;28;20037;-84
2022/02/11 13:56:07;;;;;;;14.95;6.68;;;;;;;;;;5020925;28;20108;-84
2022/02/11 13:58:33;;;;;;;83.28;32.97;;;;;;;;;;5003399;28;20177;-84
2022/02/11 14:01:00;;;;;;;50.20;23.67;;;;;;;;;;5020971;28;20355;-84
2022/02/11 14:03:28;;;;;;;12.50;5.07;;;;;;;;;;5020507;28;20026;-84
2022/02/11 14:06:02;;;;;;;19.85;7.45;;;;;;;;;;5003542;28;20026;-84
2022/02/11 14:08:41;;;;;;;137.43;57.15;;;;;;;;;;5003258;28;20030;-84
2022/02/11 14:11:09;;;;;;;42.72;15.88;;;;;;;;;;5020485;28;20022;-84
2022/02/11 14:13:35;;;;;;;35.45;11.13;;;;;;;;;;5035351;28;20044;-84
2022/02/11 14:16:01;;;;;;;44.25;15.57;;;;;;;;;;5035495;28;20076;-84
2022/02/11 14:18:27;;;;;;;138.57;42.58;;;;;;;;;;5035619;28;20065;-84
2022/02/11 14:20:53;;;;;;;21.42;9.55;;;;;;;;;;5035693;28;20026;-84
2022/02/11 14:23:21;;;;;;;33.45;11.60;;;;;;;;;;5020240;28;20022;-84
2022/02/11 14:25:47;;;;;;;17.25;6.25;;;;;;;;;;5020467;28;20030;-84
2022/02/11 14:28:14;;;;;;;54.53;21.73;;;;;;;;;;5019901;28;20022;-84
2022/02/11 14:30:41;;;;;;;27.60;10.98;;;;;;;;;;5019602;28;20437;-84
2022/02/11 14:33:07;;;;;;;15.98;5.95;;;;;;;;;;5019988;28;20014;-84
2022/02/11 14:35:34;;;;;;;28.35;10.93;;;;;;;;;;5019943;28;20102;-84
2022/02/11 14:38:00;;;;;;;18.10;8.60;;;;;;;;;;5035300;28;20022;-86
2022/02/11 14:40:26;;;;;;;13.13;5.57;;;;;;;;;;5020005;28;20045;-87
2022/02/11 14:42:52;;;;;;;8.27;4.70;;;;;;;;;;5020046;28;20021;-86
2022/02/11 14:45:18;;;;;;;16.15;7.60;;;;;;;;;;5002403;28;20037;-87
2022/02/11 14:47:47;;;;;;;19.05;8.23;;;;;;;;;;5002591;28;20033;-86
2022/02/11 14:50:13;;;;;;;37.47;10.32;;;;;;;;;;5005103;28;20026;-87
2022/02/11 14:52:39;;;;;;;12.57;4.60;;;;;;;;;;5019178;28;20030;-86
2022/02/11 14:55:06;;;;;;;19.42;10.48;;;;;;;;;;5001934;28;20030;-87
2022/02/11 14:57:33;;;;;;;358.33;123.55;;;;;;;;;;5002186;28;20400;-87
2022/02/11 15:00:00;;;;;;;61.20;36.17;;;;;;;;;;5019915;28;20032;-87
2022/02/11 15:02:26;;;;;;;62.55;32.30;;;;;;;;;;5001757;28;20049;-87
2022/02/11 15:04:54;;;;;;;56.78;32.88;;;;;;;;;;5019596;28;20041;-87
2022/02/11 15:07:20;;;;;;;75.07;28.13;;;;;;;;;;5019240;28;20026;-87
2022/02/11 15:09:46;;;;;;;19.45;8.20;;;;;;;;;;5019348;28;20026;-87
2022/02/11 15:12:12;;;;;;;17.05;6.22;;;;;;;;;;5018630;28;20026;-86
2022/02/11 15:14:39;;;;;;;66.80;24.45;;;;;;;;;;5019084;28;20038;-86
2022/02/11 15:17:05;;;;;;;17.90;11.00;;;;;;;;;;5001743;28;20405;-86
2022/02/11 15:19:31;;;;;;;15.02;7.07;;;;;;;;;;5019406;28;20040;-87
2022/02/11 15:21:57;;;;;;;79.75;27.20;;;;;;;;;;5019198;28;20033;-87
2022/02/11 15:24:25;;;;;;;133.02;51.17;;;;;;;;;;5001683;28;20030;-87
2022/02/11 15:26:51;;;;;;;88.43;36.83;;;;;;;;;;5004043;28;20041;-87
2022/02/11 15:29:17;;;;;;;39.67;18.98;;;;;;;;;;5034410;28;20029;-86
2022/02/11 15:31:44;;;;;;;144.85;51.28;;;;;;;;;;5021049;28;20024;-86
2022/02/11 15:34:11;;;;;;;237.77;73.90;;;;;;;;;;5020629;28;20057;-86
2022/02/11 15:36:37;;;;;;;66.82;33.80;;;;;;;;;;5038780;28;20017;-87
2022/02/11 15:39:04;;;;;;;73.20;26.40;;;;;;;;;;5038863;28;20041;-86
2022/02/11 15:41:30;;;;;;;25.52;12.52;;;;;;;;;;5020252;28;20033;-86
2022/02/11 15:43:56;;;;;;;51.85;20.45;;;;;;;;;;5013347;28;20416;-87
2022/02/11 15:46:23;;;;;;;83.93;28.20;;;;;;;;;;5031645;28;20037;-86
2022/02/11 15:51:52;;;;;;;64.88;23.55;;;;;;;;;;5038022;28;20426;-87
2022/02/11 15:54:18;;;;;;;76.68;28.60;;;;;;;;;;5029841;28;20029;-86
2022/02/11 15:56:44;;;;;;;46.08;16.88;;;;;;;;;;5016417;28;20029;-87
2022/02/11 15:59:10;;;;;;;32.22;11.35;;;;;;;;;;5038390;28;20050;-86
2022/02/11 16:01:37;;;;;;;64.75;25.63;;;;;;;;;;5038523;28;20032;-87
2022/02/11 16:07:06;;;;;;;68.25;33.92;;;;;;;;;;5038269;28;20036;-87
2022/02/11 16:09:33;;;;;;;87.07;41.13;;;;;;;;;;5019423;28;20038;-86
2022/02/11 16:12:00;;;;;;;55.97;28.77;;;;;;;;;;5000415;28;20033;-87
2022/02/11 16:14:26;;;;;;;39.42;18.83;;;;;;;;;;5018156;28;20054;-87
2022/02/11 16:16:52;;;;;;;54.50;25.98;;;;;;;;;;5018434;28;20045;-87
2022/02/11 16:19:37;;;;;;;106.18;48.88;;;;;;;;;;5017959;28;20026;-87
2022/02/11 16:22:04;;;;;;;59.78;25.65;;;;;;;;;;5018110;28;20101;-87
2022/02/11 16:24:30;;;;;;;56.58;24.38;;;;;;;;;;5019036;28;20030;-87
2022/02/11 16:26:57;;;;;;;55.45;23.63;;;;;;;;;;5006654;28;20427;-86
2022/02/11 16:29:23;;;;;;;41.60;19.20;;;;;;;;;;5034448;28;20032;-87
2022/02/11 16:31:49;;;;;;;65.57;30.67;;;;;;;;;;5000199;28;20065;-87
2022/02/11 16:37:19;;;;;;;26.70;11.50;;;;;;;;;;5017911;28;20037;-87
2022/02/11 16:39:45;;;;;;;39.67;19.90;;;;;;;;;;5017726;28;20029;-85
2022/02/11 16:42:11;;;;;;;33.83;18.00;;;;;;;;;;5025266;28;20041;-86
2022/02/11 16:44:38;;;;;;;37.42;18.73;;;;;;;;;;5012143;28;20041;-88
2022/02/11 16:47:05;;;;;;;41.55;24.60;;;;;;;;;;5018197;28;20034;-87
2022/02/11 16:49:31;;;;;;;40.45;23.38;;;;;;;;;;5036575;28;20029;-88
2022/02/11 16:51:59;;;;;;;46.45;31.38;;;;;;;;;;5037716;28;20057;-87
2022/02/11 16:54:25;;;;;;;56.45;39.78;;;;;;;;;;5018008;28;20056;-88
2022/02/11 16:56:51;;;;;;;35.95;23.98;;;;;;;;;;5024546;28;20037;-86
2022/02/11 16:59:17;;;;;;;24.08;14.98;;;;;;;;;;5039441;28;20028;-87
2022/02/11 17:01:44;;;;;;;22.55;12.88;;;;;;;;;;5043241;28;20053;-86
2022/02/11 17:04:10;;;;;;;26.40;12.00;;;;;;;;;;5043861;28;20025;-86
2022/02/11 17:06:36;;;;;;;26.67;12.45;;;;;;;;;;5053964;28;20037;-86
2022/02/11 17:09:02;;;;;;;30.73;16.45;;;;;;;;;;5045914;28;20033;-86
2022/02/11 17:11:29;;;;;;;48.10;19.73;;;;;;;;;;5043139;28;20056;-86
2022/02/11 17:13:55;;;;;;;58.03;21.75;;;;;;;;;;5043055;28;20057;-82
2022/02/11 17:16:21;;;;;;;44.75;18.48;;;;;;;;;;5040239;28;20083;-82
2022/02/11 17:18:48;;;;;;;50.47;21.77;;;;;;;;;;5026747;28;20443;-91
2022/02/11 17:21:14;;;;;;;50.05;21.42;;;;;;;;;;5032031;28;20026;-82
2022/02/11 17:23:40;;;;;;;42.35;17.38;;;;;;;;;;5024948;28;20363;-82
2022/02/11 17:26:06;;;;;;;45.95;16.92;;;;;;;;;;5041155;28;20407;-83
2022/02/11 17:28:34;;;;;;;36.67;17.05;;;;;;;;;;5031724;28;20029;-83
2022/02/11 17:31:00;;;;;;;30.10;13.20;;;;;;;;;;5023583;28;20068;-83
2022/02/11 17:33:26;;;;;;;26.60;11.82;;;;;;;;;;5023733;28;20415;-82
2022/02/11 17:35:52;;;;;;;23.08;10.40;;;;;;;;;;5023314;28;20028;-83
2022/02/11 17:38:19;;;;;;;17.02;8.85;;;;;;;;;;5023759;28;20293;-83
2022/02/11 17:40:46;;;;;;;19.38;10.57;;;;;;;;;;5024679;28;20053;-83
2022/02/11 17:43:15;;;;;;;21.67;11.00;;;;;;;;;;5023300;28;20022;-83
2022/02/11 17:45:42;;;;;;;33.97;17.17;;;;;;;;;;5025228;28;20082;-82
2022/02/11 17:48:08;;;;;;;26.48;14.10;;;;;;;;;;5043143;28;20025;-83
2022/02/11 17:50:34;;;;;;;30.35;15.25;;;;;;;;;;5037622;28;20311;-83
2022/02/11 17:53:00;;;;;;;24.25;12.38;;;;;;;;;;5031429;28;20332;-81
2022/02/11 17:55:27;;;;;;;44.38;17.42;;;;;;;;;;5047681;28;20140;-82
2022/02/11 17:57:53;;;;;;;34.85;12.05;;;;;;;;;;5061060;28;20024;-82
2022/02/11 18:00:19;;;;;;;60.08;26.52;;;;;;;;;;5038081;28;20097;-83
2022/02/11 18:03:03;;;;;;;25.42;14.32;;;;;;;;;;5032926;28;20029;-83
2022/02/11 18:05:29;;;;;;;17.13;8.52;;;;;;;;;;5020525;28;20113;-81
2022/02/11 18:07:56;;;;;;;19.45;10.20;;;;;;;;;;5035380;28;20432;-80
2022/02/11 18:10:23;;;;;;;26.55;11.30;;;;;;;;;;5039373;28;20060;-80
2022/02/11 18:12:50;;;;;;;24.92;12.40;;;;;;;;;;5037264;28;20041;-83
2022/02/11 18:15:16;;;;;;;21.52;10.32;;;;;;;;;;5025575;28;20057;-83
2022/02/11 18:17:43;;;;;;;17.40;10.45;;;;;;;;;;5023327;28;20021;-82
2022/02/11 18:20:10;;;;;;;24.85;11.45;;;;;;;;;;5039195;28;20026;-82
2022/02/11 18:22:36;;;;;;;18.70;9.95;;;;;;;;;;5032893;28;20022;-82
2022/02/11 18:25:03;;;;;;;22.33;10.80;;;;;;;;;;5019691;28;20055;-81
2022/02/11 18:27:29;;;;;;;23.45;12.13;;;;;;;;;;5019447;28;20424;-82
2022/02/11 18:29:55;;;;;;;19.98;10.82;;;;;;;;;;5019766;28;20104;-82
2022/02/11 18:32:22;;;;;;;22.35;11.20;;;;;;;;;;5019576;28;20072;-82